Dunkirk, NY
on Sunday, December 10, 2017

Sunday
       
Previous Day Next Day
Daily Summary
 ActualAverageRecord
Temperature
Mean Temperature °F °C °F °C  
Max Temperature 32°F 0°C 38°F 3°C 63°F 17°C (1971)
Min Temperature 26°F -3°C 27°F -2°C 0°F -17°C (1934)
Degree Days
Heating Degree Days 36    
Moisture
Dew Point 22°F -6°C   
Average Humidity 76    
Maximum Humidity 93    
Minimum Humidity 61    
Precipitation
Precipitation 0.02 in / 0.51 cm in / cm in / cm ()
Wind
Wind Speed 15 mph / 24 km/h   
Max Wind Speed 25 mph / 40 km/h   
Max Gust Speed 37 mph / 60 km/h   
Visibility 5 miles / 8 kilometers   
Events Fog , Snow   
Averages and records for this station are not official NWS values.
Key: T is trace of precipitation, MM is missing value
Source: NWS Daily Summary
Seasonal Weather Averages
Time(EST)TemperatureDew PointHumidity Pressure Visibility Wind DirectionWind SpeedGust SpeedPrecipitationEvents Conditions
12:53 AM 28.9°F -1.7°C 21.9°F -5.6°C 75% 29.81 in / 1009.2 hPa 3.0 miles / 4.8 kilometers SW 12.7 mph / 20.4 km/h 23.0 mph / 37.0 km/h 0.00 in / 0.0 cm Snow Light Snow
12:57 AM 28.9°F -1.7°C 21.9°F -5.6°C 75% 29.78 in / 1008.4 hPa 1.8 miles / 2.8 kilometers SW 15.0 mph / 24.1 km/h 23.0 mph / 37.0 km/h 0.00 in / 0.0 cm Snow Light Snow
1:09 AM 28.0°F -2.2°C 23.0°F -5.0°C 81% 29.78 in / 1008.4 hPa 3.0 miles / 4.8 kilometers SW 12.7 mph / 20.4 km/h - 0.00 in / 0.0 cm Snow Light Snow
1:53 AM 28.9°F -1.7°C 26.1°F -3.3°C 89% 29.81 in / 1009.3 hPa 7.0 miles / 11.3 kilometers Variable 5.8 mph / 9.3 km/h - 0.00 in / 0.0 cm Snow Light Snow
2:53 AM 32.0°F 0.0°C 23.0°F -5.0°C 69% 29.81 in / 1009.5 hPa 10.0 miles / 16.1 kilometers West 15.0 mph / 24.1 km/h 20.7 mph / 33.3 km/h 0.00 in / 0.0 cm   Overcast
3:41 AM 32.0°F 0.0°C 24.1°F -4.4°C 73% 29.79 in / 1008.7 hPa 10.0 miles / 16.1 kilometers West 11.5 mph / 18.5 km/h 19.6 mph / 31.5 km/h N/A   Overcast
3:51 AM 32.0°F 0.0°C 24.8°F -4.0°C 75% 29.79 in / 1008.7 hPa 10.0 miles / 16.1 kilometers West 9.2 mph / 14.8 km/h 18.4 mph / 29.6 km/h N/A   Overcast
3:53 AM 32.0°F 0.0°C 24.1°F -4.4°C 73% 29.81 in / 1009.5 hPa 10.0 miles / 16.1 kilometers WNW 10.4 mph / 16.7 km/h - N/A   Overcast
4:32 AM 32.0°F 0.0°C 26.1°F -3.3°C 79% 29.80 in / 1009.0 hPa 10.0 miles / 16.1 kilometers WNW 16.1 mph / 25.9 km/h 24.2 mph / 38.9 km/h N/A   Overcast
4:53 AM 30.9°F -0.6°C 24.1°F -4.4°C 76% 29.84 in / 1010.5 hPa 6.0 miles / 9.7 kilometers NW 21.9 mph / 35.2 km/h 28.8 mph / 46.3 km/h 0.00 in / 0.0 cm Snow Light Snow
5:24 AM 30.0°F -1.1°C 21.9°F -5.6°C 72% 29.83 in / 1010.0 hPa 10.0 miles / 16.1 kilometers NW 10.4 mph / 16.7 km/h 24.2 mph / 38.9 km/h 0.00 in / 0.0 cm   Overcast
5:53 AM 30.0°F -1.1°C 21.9°F -5.6°C 72% 29.87 in / 1011.5 hPa 10.0 miles / 16.1 kilometers WNW 9.2 mph / 14.8 km/h - 0.00 in / 0.0 cm   Overcast
6:03 AM 30.0°F -1.1°C 21.9°F -5.6°C 72% 29.85 in / 1010.7 hPa 10.0 miles / 16.1 kilometers WNW 15.0 mph / 24.1 km/h 21.9 mph / 35.2 km/h N/A   Overcast
6:53 AM 30.0°F -1.1°C 23.0°F -5.0°C 75% 29.88 in / 1011.9 hPa 9.0 miles / 14.5 kilometers WNW 15.0 mph / 24.1 km/h 24.2 mph / 38.9 km/h 0.00 in / 0.0 cm   Overcast
7:21 AM 30.0°F -1.1°C 19.9°F -6.7°C 66% 29.87 in / 1011.4 hPa 10.0 miles / 16.1 kilometers West 19.6 mph / 31.5 km/h 28.8 mph / 46.3 km/h 0.00 in / 0.0 cm   Overcast
7:53 AM 28.9°F -1.7°C 18.0°F -7.8°C 64% 29.91 in / 1012.8 hPa 8.0 miles / 12.9 kilometers West 13.8 mph / 22.2 km/h 32.2 mph / 51.9 km/h 0.00 in / 0.0 cm   Overcast
8:53 AM 30.0°F -1.1°C 18.0°F -7.8°C 61% 29.92 in / 1013.1 hPa 10.0 miles / 16.1 kilometers West 17.3 mph / 27.8 km/h 28.8 mph / 46.3 km/h N/A   Overcast
9:37 AM 28.9°F -1.7°C 21.0°F -6.1°C 72% 29.89 in / 1012.1 hPa 1.8 miles / 2.8 kilometers West 16.1 mph / 25.9 km/h 28.8 mph / 46.3 km/h 0.00 in / 0.0 cm Snow Light Snow
9:45 AM 30.0°F -1.1°C 19.9°F -6.7°C 66% 29.89 in / 1012.1 hPa 3.0 miles / 4.8 kilometers WSW 19.6 mph / 31.5 km/h 25.3 mph / 40.7 km/h 0.00 in / 0.0 cm Snow Light Snow
9:53 AM 30.9°F -0.6°C 21.0°F -6.1°C 67% 29.91 in / 1012.8 hPa 6.0 miles / 9.7 kilometers West 16.1 mph / 25.9 km/h 26.5 mph / 42.6 km/h 0.00 in / 0.0 cm Snow Light Snow
10:53 AM 30.9°F -0.6°C 24.1°F -4.4°C 76% 29.91 in / 1012.6 hPa 5.0 miles / 8.0 kilometers WSW 13.8 mph / 22.2 km/h 26.5 mph / 42.6 km/h 0.00 in / 0.0 cm Snow Light Snow
11:09 AM 30.9°F -0.6°C 25.0°F -3.9°C 79% 29.88 in / 1011.7 hPa 2.0 miles / 3.2 kilometers WSW 13.8 mph / 22.2 km/h 23.0 mph / 37.0 km/h 0.00 in / 0.0 cm Snow Light Snow
11:11 AM 30.0°F -1.1°C 25.0°F -3.9°C 82% 29.88 in / 1011.7 hPa 0.8 miles / 1.2 kilometers SW 16.1 mph / 25.9 km/h 24.2 mph / 38.9 km/h 0.00 in / 0.0 cm Snow Light Snow
11:15 AM 28.9°F -1.7°C 25.0°F -3.9°C 85% 29.88 in / 1011.7 hPa 0.2 miles / 0.4 kilometers SW 17.3 mph / 27.8 km/h 24.2 mph / 38.9 km/h 0.00 in / 0.0 cm Fog , Snow Heavy Snow
11:31 AM 28.9°F -1.7°C 27.0°F -2.8°C 92% 29.87 in / 1011.4 hPa 1.0 miles / 1.6 kilometers SSW 15.0 mph / 24.1 km/h - 0.00 in / 0.0 cm Snow Light Snow
11:38 AM 28.9°F -1.7°C 26.1°F -3.3°C 89% 29.87 in / 1011.4 hPa 1.8 miles / 2.8 kilometers SW 13.8 mph / 22.2 km/h - 0.00 in / 0.0 cm Snow Light Snow
11:48 AM 28.4°F -2.0°C 24.8°F -4.0°C 86% 29.87 in / 1011.4 hPa 1.0 miles / 1.6 kilometers SW 18.4 mph / 29.6 km/h 28.8 mph / 46.3 km/h 0.00 in / 0.0 cm Snow Light Snow
11:53 AM 28.9°F -1.7°C 25.0°F -3.9°C 85% 29.89 in / 1012.2 hPa 1.0 miles / 1.6 kilometers SW 16.1 mph / 25.9 km/h 28.8 mph / 46.3 km/h 0.00 in / 0.0 cm Snow Light Snow
12:00 PM 30.0°F -1.1°C 24.1°F -4.4°C 79% 29.86 in / 1011.1 hPa 2.0 miles / 3.2 kilometers SW 16.1 mph / 25.9 km/h 24.2 mph / 38.9 km/h 0.00 in / 0.0 cm Snow Light Snow
12:08 PM 30.0°F -1.1°C 23.0°F -5.0°C 75% 29.86 in / 1011.1 hPa 4.0 miles / 6.4 kilometers SW 20.7 mph / 33.3 km/h 33.4 mph / 53.7 km/h 0.00 in / 0.0 cm Snow Light Snow
12:53 PM 30.0°F -1.1°C 21.9°F -5.6°C 72% 29.88 in / 1011.7 hPa 8.0 miles / 12.9 kilometers SW 20.7 mph / 33.3 km/h 29.9 mph / 48.2 km/h 0.00 in / 0.0 cm   Overcast
1:09 PM 30.0°F -1.1°C 21.9°F -5.6°C 72% 29.85 in / 1010.7 hPa 6.0 miles / 9.7 kilometers SW 21.9 mph / 35.2 km/h 31.1 mph / 50.0 km/h N/A   Haze
1:17 PM 30.0°F -1.1°C 21.9°F -5.6°C 72% 29.84 in / 1010.4 hPa 5.0 miles / 8.0 kilometers SW 21.9 mph / 35.2 km/h 36.8 mph / 59.3 km/h N/A   Haze
1:53 PM 30.0°F -1.1°C 21.0°F -6.1°C 69% 29.87 in / 1011.4 hPa 5.0 miles / 8.0 kilometers WSW 23.0 mph / 37.0 km/h 34.5 mph / 55.6 km/h 0.00 in / 0.0 cm Snow Light Snow
2:15 PM 30.0°F -1.1°C 21.0°F -6.1°C 69% 29.85 in / 1010.7 hPa 2.5 miles / 4.0 kilometers SW 21.9 mph / 35.2 km/h 32.2 mph / 51.9 km/h 0.00 in / 0.0 cm Snow Light Snow
2:25 PM 30.0°F -1.1°C 21.9°F -5.6°C 72% 29.85 in / 1010.7 hPa 3.0 miles / 4.8 kilometers SW 15.0 mph / 24.1 km/h 28.8 mph / 46.3 km/h 0.00 in / 0.0 cm Snow Light Snow
2:34 PM 28.9°F -1.7°C 21.9°F -5.6°C 75% 29.85 in / 1010.7 hPa 1.8 miles / 2.8 kilometers SW 25.3 mph / 40.7 km/h 31.1 mph / 50.0 km/h 0.00 in / 0.0 cm Snow Light Snow
2:42 PM 28.9°F -1.7°C 21.9°F -5.6°C 75% 29.86 in / 1011.1 hPa 0.8 miles / 1.2 kilometers SW 25.3 mph / 40.7 km/h 33.4 mph / 53.7 km/h 0.00 in / 0.0 cm Snow Light Snow
2:53 PM 28.0°F -2.2°C 21.9°F -5.6°C 78% 29.88 in / 1011.8 hPa 1.0 miles / 1.6 kilometers SW 19.6 mph / 31.5 km/h 27.6 mph / 44.4 km/h 0.00 in / 0.0 cm Snow Light Snow
3:08 PM 28.0°F -2.2°C 23.0°F -5.0°C 81% 29.86 in / 1011.1 hPa 0.8 miles / 1.2 kilometers SW 15.0 mph / 24.1 km/h 27.6 mph / 44.4 km/h 0.00 in / 0.0 cm Snow Light Snow
3:25 PM 28.0°F -2.2°C 23.0°F -5.0°C 81% 29.86 in / 1011.1 hPa 1.2 miles / 2.0 kilometers SW 16.1 mph / 25.9 km/h 27.6 mph / 44.4 km/h 0.01 in / 0.3 cm Snow Light Snow
3:50 PM 28.4°F -2.0°C 23.0°F -5.0°C 80% 29.86 in / 1011.1 hPa 2.0 miles / 3.2 kilometers SW 15.0 mph / 24.1 km/h - 0.01 in / 0.3 cm Snow Light Snow
3:53 PM 28.0°F -2.2°C 23.0°F -5.0°C 81% 29.89 in / 1012.2 hPa 2.0 miles / 3.2 kilometers SW 16.1 mph / 25.9 km/h - 0.01 in / 0.3 cm Snow Light Snow
4:00 PM 28.0°F -2.2°C 21.9°F -5.6°C 78% 29.87 in / 1011.4 hPa 1.8 miles / 2.8 kilometers SW 17.3 mph / 27.8 km/h - 0.00 in / 0.0 cm Snow Light Snow
4:05 PM 28.9°F -1.7°C 21.9°F -5.6°C 75% 29.87 in / 1011.4 hPa 3.0 miles / 4.8 kilometers SW 19.6 mph / 31.5 km/h 24.2 mph / 38.9 km/h 0.00 in / 0.0 cm Snow Light Snow
4:53 PM 28.9°F -1.7°C 21.0°F -6.1°C 72% 29.91 in / 1012.6 hPa 6.0 miles / 9.7 kilometers SW 15.0 mph / 24.1 km/h - 0.00 in / 0.0 cm Snow Light Snow
5:41 PM 28.9°F -1.7°C 19.0°F -7.2°C 67% 29.90 in / 1012.4 hPa 8.0 miles / 12.9 kilometers SW 13.8 mph / 22.2 km/h - 0.00 in / 0.0 cm Snow Light Snow
5:53 PM 28.0°F -2.2°C 19.9°F -6.7°C 72% 29.93 in / 1013.3 hPa 8.0 miles / 12.9 kilometers SW 13.8 mph / 22.2 km/h - 0.00 in / 0.0 cm Snow Light Snow
6:53 PM 28.0°F -2.2°C 18.0°F -7.8°C 66% 29.93 in / 1013.4 hPa 7.0 miles / 11.3 kilometers SW 16.1 mph / 25.9 km/h - 0.00 in / 0.0 cm Snow Light Snow
7:53 PM 28.0°F -2.2°C 18.0°F -7.8°C 66% 29.93 in / 1013.3 hPa 6.0 miles / 9.7 kilometers SW 23.0 mph / 37.0 km/h 28.8 mph / 46.3 km/h 0.00 in / 0.0 cm Snow Light Snow
8:00 PM 28.0°F -2.2°C 18.0°F -7.8°C 66% 29.90 in / 1012.4 hPa 5.0 miles / 8.0 kilometers SW 15.0 mph / 24.1 km/h 28.8 mph / 46.3 km/h 0.00 in / 0.0 cm Snow Light Snow
8:14 PM 28.0°F -2.2°C 18.0°F -7.8°C 66% 29.90 in / 1012.4 hPa 9.0 miles / 14.5 kilometers SW 16.1 mph / 25.9 km/h - 0.00 in / 0.0 cm Snow Light Snow
8:53 PM 28.0°F -2.2°C 19.0°F -7.2°C 69% 29.93 in / 1013.3 hPa 8.0 miles / 12.9 kilometers SW 18.4 mph / 29.6 km/h 26.5 mph / 42.6 km/h 0.00 in / 0.0 cm Snow Light Snow
9:53 PM 28.0°F -2.2°C 19.9°F -6.7°C 72% 29.93 in / 1013.4 hPa 9.0 miles / 14.5 kilometers SW 17.3 mph / 27.8 km/h 23.0 mph / 37.0 km/h 0.00 in / 0.0 cm Snow Light Snow
10:49 PM 28.4°F -2.0°C 21.2°F -6.0°C 74% 29.90 in / 1012.4 hPa 4.0 miles / 6.4 kilometers SW 11.5 mph / 18.5 km/h - 0.00 in / 0.0 cm Snow Light Snow
10:53 PM 28.0°F -2.2°C 21.0°F -6.1°C 75% 29.92 in / 1013.2 hPa 3.0 miles / 4.8 kilometers SW 11.5 mph / 18.5 km/h - 0.00 in / 0.0 cm Snow Light Snow
11:17 PM 27.0°F -2.8°C 21.9°F -5.6°C 81% 29.90 in / 1012.4 hPa 2.5 miles / 4.0 kilometers SW 10.4 mph / 16.7 km/h - 0.00 in / 0.0 cm Snow Light Snow
11:25 PM 28.0°F -2.2°C 23.0°F -5.0°C 81% 29.90 in / 1012.4 hPa 3.0 miles / 4.8 kilometers SW 10.4 mph / 16.7 km/h - 0.00 in / 0.0 cm Snow Light Snow
11:28 PM 27.0°F -2.8°C 23.0°F -5.0°C 85% 29.90 in / 1012.4 hPa 1.8 miles / 2.8 kilometers SW 11.5 mph / 18.5 km/h - 0.00 in / 0.0 cm Snow Light Snow
11:38 PM 27.0°F -2.8°C 24.1°F -4.4°C 89% 29.91 in / 1012.8 hPa 0.8 miles / 1.2 kilometers SW 15.0 mph / 24.1 km/h - 0.00 in / 0.0 cm Snow Light Snow
11:50 PM 26.6°F -3.0°C 24.8°F -4.0°C 93% 29.90 in / 1012.4 hPa 0.2 miles / 0.4 kilometers SW 12.7 mph / 20.4 km/h - 0.00 in / 0.0 cm Fog , Snow Heavy Snow
11:53 PM 27.0°F -2.8°C 25.0°F -3.9°C 92% 29.93 in / 1013.4 hPa 0.2 miles / 0.4 kilometers SW 12.7 mph / 20.4 km/h - 0.01 in / 0.3 cm Fog , Snow Heavy Snow